createdAt,value
2023-04-25T00:01:25.295Z,51.15
2023-04-25T00:03:54.451Z,45.75
2023-04-25T00:06:23.675Z,45.20
2023-04-25T00:08:52.369Z,46.00
2023-04-25T00:11:21.088Z,75.68
2023-04-25T00:13:51.693Z,44.35
2023-04-25T00:16:20.648Z,50.08
2023-04-25T00:18:53.243Z,49.50
2023-04-25T00:21:22.442Z,47.05
2023-04-25T00:23:51.621Z,48.33
2023-04-25T00:26:20.770Z,42.25
2023-04-25T00:28:50.171Z,51.10
2023-04-25T00:31:19.027Z,44.97
2023-04-25T00:33:47.872Z,42.00
2023-04-25T00:36:16.857Z,38.38
2023-04-25T00:38:45.593Z,37.20
2023-04-25T00:41:14.549Z,35.92
2023-04-25T00:43:44.038Z,42.50
2023-04-25T00:46:12.872Z,36.65
2023-04-25T00:48:41.683Z,34.42
2023-04-25T00:51:18.415Z,34.92
2023-04-25T00:53:48.265Z,36.22
2023-04-25T00:56:17.694Z,33.80
2023-04-25T00:58:46.677Z,32.83
2023-04-25T01:01:15.982Z,34.15
2023-04-25T01:03:47.133Z,35.50
2023-04-25T01:06:16.021Z,38.53
2023-04-25T01:08:44.941Z,35.85
2023-04-25T01:11:13.958Z,34.28
2023-04-25T01:13:42.835Z,35.63
2023-04-25T01:16:11.805Z,34.13
2023-04-25T01:18:42.665Z,32.85
2023-04-25T01:21:13.011Z,33.95
2023-04-25T01:23:43.557Z,29.05
2023-04-25T01:26:13.992Z,27.38
2023-04-25T01:28:43.400Z,24.38
2023-04-25T01:31:12.733Z,26.08
2023-04-25T01:33:41.889Z,27.45
2023-04-25T01:36:11.459Z,20.02
2023-04-25T01:38:40.302Z,22.85
2023-04-25T01:41:09.249Z,21.70
2023-04-25T01:43:44.179Z,21.58
2023-04-25T01:46:14.261Z,19.92
2023-04-25T01:48:43.191Z,21.55
2023-04-25T01:51:18.406Z,19.13
2023-04-25T01:53:50.158Z,20.88
2023-04-25T01:56:21.093Z,20.70
2023-04-25T01:58:49.881Z,19.98
2023-04-25T02:01:38.893Z,20.40
2023-04-25T02:04:13.284Z,21.45
2023-04-25T02:06:45.534Z,20.52
2023-04-25T02:09:17.204Z,21.45
2023-04-25T02:11:51.141Z,20.63
2023-04-25T02:14:24.594Z,20.92
2023-04-25T02:16:54.800Z,20.40
2023-04-25T02:19:23.884Z,20.23
2023-04-25T02:21:52.669Z,19.77
2023-04-25T02:24:21.454Z,20.02
2023-04-25T02:27:00.760Z,20.15
2023-04-25T02:29:29.689Z,18.73
2023-04-25T02:31:59.316Z,19.27
2023-04-25T02:34:28.160Z,18.50
2023-04-25T02:36:57.217Z,19.50
2023-04-25T02:39:27.137Z,18.15
2023-04-25T02:41:56.403Z,18.95
2023-04-25T02:44:25.232Z,19.15
2023-04-25T02:46:54.202Z,19.52
2023-04-25T02:49:22.955Z,17.27
2023-04-25T02:51:52.434Z,17.67
2023-04-25T02:54:21.302Z,18.13
2023-04-25T02:56:50.165Z,16.67
2023-04-25T02:59:18.924Z,15.70
2023-04-25T03:01:47.746Z,16.90
2023-04-25T03:04:17.126Z,16.88
2023-04-25T03:06:45.859Z,16.45
2023-04-25T03:09:14.616Z,20.38
2023-04-25T03:11:43.425Z,16.45
2023-04-25T03:14:12.263Z,15.23
2023-04-25T03:16:41.233Z,16.90
2023-04-25T03:19:10.215Z,16.05
2023-04-25T03:21:39.739Z,16.13
2023-04-25T03:24:08.621Z,15.73
2023-04-25T03:26:37.290Z,15.38
2023-04-25T03:29:06.123Z,16.38
2023-04-25T03:31:34.922Z,14.48
2023-04-25T03:34:03.763Z,16.27
2023-04-25T03:36:32.595Z,14.98
2023-04-25T03:39:01.976Z,15.13
2023-04-25T03:41:31.775Z,14.98
2023-04-25T03:44:00.531Z,20.15
2023-04-25T03:46:29.420Z,18.15
2023-04-25T03:48:58.350Z,16.10
2023-04-25T03:51:27.545Z,15.88
2023-04-25T03:53:56.343Z,15.75
2023-04-25T03:56:25.544Z,15.43
2023-04-25T03:58:54.354Z,15.52
2023-04-25T04:01:23.167Z,18.02
2023-04-25T04:03:52.566Z,15.73
2023-04-25T04:06:22.786Z,16.98
2023-04-25T04:08:51.585Z,16.00
2023-04-25T04:11:20.470Z,17.90
2023-04-25T04:13:49.448Z,17.42
2023-04-25T04:16:18.580Z,16.70
2023-04-25T04:18:48.240Z,17.30
2023-04-25T04:21:17.081Z,17.80
2023-04-25T04:23:45.879Z,17.10
2023-04-25T04:26:15.084Z,19.35
2023-04-25T04:28:44.232Z,16.42
2023-04-25T04:31:14.106Z,17.80
2023-04-25T04:33:42.918Z,17.30
2023-04-25T04:36:11.922Z,16.00
2023-04-25T04:38:42.003Z,16.88
2023-04-25T04:41:10.984Z,16.52
2023-04-25T04:43:41.494Z,16.65
2023-04-25T04:46:12.200Z,16.73
2023-04-25T04:48:42.191Z,16.02
2023-04-25T04:51:10.849Z,16.27
2023-04-25T04:53:39.549Z,17.73
2023-04-25T04:56:08.510Z,17.92
2023-04-25T04:58:38.490Z,18.83
2023-04-25T05:01:08.076Z,16.90
2023-04-25T05:03:39.390Z,18.88
2023-04-25T05:06:10.937Z,18.33
2023-04-25T05:08:39.818Z,16.95
2023-04-25T05:11:08.532Z,17.30
2023-04-25T05:13:37.277Z,18.13
2023-04-25T05:16:06.379Z,17.90
2023-04-25T05:18:35.153Z,19.48
2023-04-25T05:21:03.911Z,18.55
2023-04-25T05:23:33.452Z,18.58
2023-04-25T05:26:02.891Z,18.70
2023-04-25T05:28:31.644Z,19.08
2023-04-25T05:31:00.284Z,18.25
2023-04-25T05:33:29.007Z,17.95
2023-04-25T05:35:57.759Z,18.92
2023-04-25T05:38:26.796Z,17.95
2023-04-25T05:40:55.538Z,19.08
2023-04-25T05:43:24.257Z,18.58
2023-04-25T05:45:53.158Z,19.63
2023-04-25T05:48:21.792Z,18.85
2023-04-25T05:50:50.558Z,17.48
2023-04-25T05:53:19.733Z,17.95
2023-04-25T05:55:49.292Z,16.85
2023-04-25T05:58:17.930Z,18.48
2023-04-25T06:00:46.968Z,17.45
2023-04-25T06:03:20.422Z,18.00
2023-04-25T06:05:50.100Z,18.00
2023-04-25T06:08:18.735Z,19.40
2023-04-25T06:10:47.441Z,18.15
2023-04-25T06:13:16.141Z,18.02
2023-04-25T06:15:45.226Z,18.10
2023-04-25T06:18:13.891Z,19.02
2023-04-25T06:20:42.543Z,19.33
2023-04-25T06:23:11.176Z,18.25
2023-04-25T06:25:39.824Z,18.02
2023-04-25T06:28:08.462Z,18.00
2023-04-25T06:30:38.683Z,18.92
2023-04-25T06:33:07.517Z,18.23
2023-04-25T06:35:36.578Z,17.80
2023-04-25T06:38:05.459Z,18.08
2023-04-25T06:40:34.197Z,18.67
2023-04-25T06:43:02.930Z,19.05
2023-04-25T06:45:33.703Z,18.58
2023-04-25T06:48:02.449Z,18.05
2023-04-25T06:50:31.340Z,18.35
2023-04-25T06:53:00.030Z,17.67
2023-04-25T06:55:29.374Z,17.98
2023-04-25T06:57:58.118Z,18.30
2023-04-25T07:00:27.242Z,19.13
2023-04-25T07:02:56.026Z,19.63
2023-04-25T07:05:25.328Z,19.45
2023-04-25T07:07:54.050Z,19.25
2023-04-25T07:10:23.310Z,19.58
2023-04-25T07:12:52.087Z,20.05
2023-04-25T07:15:20.806Z,21.55
2023-04-25T07:17:49.629Z,20.27
2023-04-25T07:20:18.455Z,19.67
2023-04-25T07:22:47.206Z,22.25
2023-04-25T07:25:15.883Z,20.70
2023-04-25T07:27:44.722Z,20.27
2023-04-25T07:30:14.232Z,20.92
2023-04-25T07:32:43.190Z,21.67
2023-04-25T07:35:12.224Z,21.50
2023-04-25T07:37:40.901Z,23.08
2023-04-25T07:40:11.505Z,22.45
2023-04-25T07:42:40.196Z,22.55
2023-04-25T07:45:09.511Z,22.67
2023-04-25T07:55:21.492Z,20.27
2023-04-25T07:57:50.198Z,20.17
2023-04-25T08:00:19.307Z,20.75
2023-04-25T08:02:48.154Z,20.85
2023-04-25T08:05:20.335Z,21.85
2023-04-25T08:07:53.117Z,22.08
2023-04-25T08:10:22.757Z,22.00
2023-04-25T08:12:51.688Z,22.38
2023-04-25T08:15:20.529Z,20.60
2023-04-25T08:17:51.555Z,21.05
2023-04-25T08:20:20.319Z,21.33
2023-04-25T08:22:50.949Z,21.77
2023-04-25T08:25:19.673Z,21.98
2023-04-25T08:27:48.415Z,21.73
2023-04-25T08:30:17.466Z,21.40
2023-04-25T08:32:46.473Z,22.27
2023-04-25T08:35:15.250Z,20.23
2023-04-25T08:37:44.047Z,22.55
2023-04-25T08:40:17.201Z,22.02
2023-04-25T08:42:46.585Z,21.55
2023-04-25T08:45:15.481Z,27.95
2023-04-25T08:47:47.744Z,20.90
2023-04-25T08:50:16.734Z,21.83
2023-04-25T08:52:48.128Z,21.58
2023-04-25T08:55:18.063Z,23.25
2023-04-25T08:57:47.804Z,21.00
2023-04-25T09:00:16.897Z,23.65
2023-04-25T09:02:45.867Z,21.98
2023-04-25T09:05:16.577Z,21.40
2023-04-25T09:07:45.294Z,21.20
2023-04-25T09:10:13.985Z,21.35
2023-04-25T09:12:43.091Z,21.42
2023-04-25T09:15:20.443Z,20.88
2023-04-25T09:17:58.968Z,20.20
2023-04-25T09:20:28.293Z,20.35
2023-04-25T09:23:06.210Z,21.73
2023-04-25T09:25:43.496Z,22.10
2023-04-25T09:28:13.360Z,22.90
2023-04-25T09:30:42.150Z,21.17
2023-04-25T09:33:12.995Z,25.38
2023-04-25T09:35:45.021Z,22.30
2023-04-25T09:38:16.058Z,21.00
2023-04-25T09:40:47.001Z,21.67
2023-04-25T09:43:27.436Z,21.85
2023-04-25T09:46:00.897Z,21.10
2023-04-25T09:48:31.452Z,21.17
2023-04-25T09:51:07.955Z,21.85
2023-04-25T09:53:40.638Z,22.25
2023-04-25T09:56:11.916Z,22.88
2023-04-25T09:58:42.414Z,22.73
2023-04-25T10:01:12.845Z,22.20
2023-04-25T10:03:42.446Z,23.65
2023-04-25T10:06:16.361Z,22.15
2023-04-25T10:08:46.984Z,23.45
2023-04-25T10:11:18.493Z,21.25
2023-04-25T10:13:47.898Z,21.88
2023-04-25T10:16:19.341Z,24.35
2023-04-25T10:18:48.126Z,22.00
2023-04-25T10:21:18.315Z,22.80
2023-04-25T10:23:48.145Z,23.00
2023-04-25T10:26:18.227Z,20.75
2023-04-25T10:29:04.436Z,21.23
2023-04-25T10:31:34.125Z,23.30
2023-04-25T10:34:03.779Z,24.08
2023-04-25T10:36:34.715Z,22.75
2023-04-25T10:39:09.394Z,28.45
2023-04-25T10:41:59.277Z,24.42
2023-04-25T10:44:32.522Z,23.50
2023-04-25T10:47:03.522Z,24.58
2023-04-25T10:49:43.978Z,23.20
2023-04-25T10:52:26.788Z,24.33
2023-04-25T10:57:50.388Z,24.73
2023-04-25T11:00:20.683Z,24.33
2023-04-25T11:03:01.235Z,22.77
2023-04-25T11:05:36.311Z,24.05
2023-04-25T11:08:16.059Z,24.48
2023-04-25T11:10:45.030Z,24.92
2023-04-25T11:13:13.766Z,25.23
2023-04-25T11:15:42.557Z,24.15
2023-04-25T11:18:11.589Z,24.50
2023-04-25T11:20:40.390Z,24.63
2023-04-25T11:23:09.230Z,24.70
2023-04-25T11:25:39.081Z,22.92
2023-04-25T11:28:07.980Z,23.10
2023-04-25T11:30:36.875Z,22.45
2023-04-25T11:33:05.836Z,23.80
2023-04-25T11:35:35.585Z,24.83
2023-04-25T11:38:04.468Z,24.13
2023-04-25T11:40:33.970Z,26.55
2023-04-25T11:43:04.084Z,24.85
2023-04-25T11:45:33.127Z,25.55
2023-04-25T11:48:04.348Z,24.83
2023-04-25T11:50:33.172Z,24.50
2023-04-25T11:53:02.116Z,26.88
2023-04-25T11:55:33.502Z,25.95
2023-04-25T11:58:03.429Z,25.88
2023-04-25T12:00:32.877Z,25.88
2023-04-25T12:03:01.982Z,28.77
2023-04-25T12:05:35.366Z,27.58
2023-04-25T12:08:19.452Z,27.08
2023-04-25T12:10:49.157Z,27.90
2023-04-25T12:13:24.418Z,28.95
2023-04-25T12:15:53.921Z,29.77
2023-04-25T12:18:25.839Z,28.38
2023-04-25T12:20:56.199Z,28.67
2023-04-25T12:23:29.834Z,28.90
2023-04-25T12:25:59.789Z,30.90
2023-04-25T12:28:29.430Z,30.13
2023-04-25T12:31:16.443Z,29.13
2023-04-25T12:33:46.138Z,29.48
2023-04-25T12:36:15.503Z,30.38
2023-04-25T12:38:44.742Z,29.58
2023-04-25T12:41:13.460Z,30.67
2023-04-25T12:43:42.182Z,29.23
2023-04-25T12:46:10.995Z,30.17
2023-04-25T12:48:40.567Z,30.38
2023-04-25T12:51:09.161Z,28.13
2023-04-25T12:53:39.496Z,30.40
2023-04-25T12:56:09.248Z,29.80
2023-04-25T12:58:38.020Z,29.20
2023-04-25T13:01:07.336Z,30.30
2023-04-25T13:03:37.110Z,29.48
2023-04-25T13:06:06.130Z,28.00
2023-04-25T13:08:35.121Z,28.27
2023-04-25T13:11:03.884Z,30.50
2023-04-25T13:13:33.568Z,26.92
2023-04-25T13:16:04.542Z,29.48
2023-04-25T13:18:33.756Z,27.67
2023-04-25T13:21:02.741Z,26.25
2023-04-25T13:23:32.710Z,27.25
2023-04-25T13:26:02.738Z,29.20
2023-04-25T13:28:31.477Z,28.60
2023-04-25T13:31:00.249Z,28.90
2023-04-25T13:33:28.989Z,30.15
2023-04-25T13:35:58.986Z,32.08
2023-04-25T13:38:28.018Z,30.25
2023-04-25T13:40:56.703Z,28.77
2023-04-25T13:43:25.390Z,30.00
2023-04-25T13:45:54.193Z,30.90
2023-04-25T13:48:22.920Z,31.58
2023-04-25T13:50:51.720Z,29.17
2023-04-25T13:53:20.372Z,30.15
2023-04-25T13:55:49.045Z,31.80
2023-04-25T13:58:17.631Z,30.15
2023-04-25T14:00:47.986Z,32.60
2023-04-25T14:03:16.748Z,29.92
2023-04-25T14:05:45.488Z,31.73
2023-04-25T14:08:14.229Z,32.22
2023-04-25T14:10:42.878Z,34.35
2023-04-25T14:13:11.803Z,32.08
2023-04-25T14:15:40.636Z,31.85
2023-04-25T14:18:09.405Z,31.75
2023-04-25T14:20:38.226Z,30.95
2023-04-25T14:23:07.287Z,31.20
2023-04-25T14:25:35.993Z,31.27
2023-04-25T14:28:04.786Z,29.00
2023-04-25T14:30:33.787Z,30.05
2023-04-25T14:33:02.507Z,32.40
2023-04-25T14:35:31.553Z,30.55
2023-04-25T14:38:00.350Z,29.55
2023-04-25T14:40:29.171Z,29.33
2023-04-25T14:42:57.855Z,28.13
2023-04-25T14:45:26.878Z,28.10
2023-04-25T14:47:55.732Z,28.25
2023-04-25T14:50:24.684Z,28.63
2023-04-25T14:52:54.727Z,29.35
2023-04-25T14:55:23.489Z,30.75
2023-04-25T14:57:52.518Z,29.70
2023-04-25T15:00:22.629Z,29.50
2023-04-25T15:02:52.010Z,29.83
2023-04-25T15:05:21.407Z,29.73
2023-04-25T15:07:50.143Z,28.92
2023-04-25T15:10:20.672Z,28.35
2023-04-25T15:12:49.361Z,31.20
2023-04-25T15:15:25.835Z,29.90
2023-04-25T15:17:59.040Z,30.52
2023-04-25T15:22:58.044Z,31.60
2023-04-25T15:25:27.277Z,33.75
2023-04-25T15:27:56.870Z,31.75
2023-04-25T15:30:25.609Z,32.40
2023-04-25T15:32:55.281Z,31.13
2023-04-25T15:35:24.071Z,32.15
2023-04-25T15:37:53.235Z,31.60
2023-04-25T15:40:21.959Z,32.47
2023-04-25T15:42:53.630Z,31.52
2023-04-25T15:45:27.218Z,32.92
2023-04-25T15:47:58.355Z,31.85
2023-04-25T15:50:27.959Z,32.08
2023-04-25T15:52:56.847Z,32.88
2023-04-25T15:55:27.891Z,32.95
2023-04-25T15:57:56.898Z,41.10
2023-04-25T16:00:25.718Z,46.15
2023-04-25T16:02:54.672Z,38.97
2023-04-25T16:05:23.650Z,38.65
2023-04-25T16:07:54.795Z,39.92
2023-04-25T16:10:23.535Z,35.58
2023-04-25T16:12:52.677Z,34.97
2023-04-25T16:15:21.678Z,31.33
2023-04-25T16:17:50.449Z,31.55
2023-04-25T16:20:19.277Z,31.08
2023-04-25T16:22:48.594Z,31.05
2023-04-25T16:25:17.484Z,31.88
2023-04-25T16:27:46.434Z,32.53
2023-04-25T16:30:16.343Z,31.85
2023-04-25T16:32:45.732Z,31.13
2023-04-25T16:35:14.852Z,32.03
2023-04-25T16:37:43.679Z,31.23
2023-04-25T16:40:13.351Z,30.60
2023-04-25T16:42:42.020Z,30.30
2023-04-25T16:45:11.968Z,30.08
2023-04-25T16:47:40.905Z,28.58
2023-04-25T16:50:10.122Z,28.15
2023-04-25T16:52:38.804Z,29.23
2023-04-25T16:55:09.232Z,28.38
2023-04-25T16:57:38.792Z,29.02
2023-04-25T17:03:59.423Z,29.10
2023-04-25T17:06:28.360Z,31.60
2023-04-25T17:08:57.208Z,29.25
2023-04-25T17:11:25.935Z,30.67
2023-04-25T17:13:54.748Z,31.10
2023-04-25T17:16:24.849Z,30.98
2023-04-25T17:18:53.633Z,29.45
2023-04-25T17:21:22.603Z,30.33
2023-04-25T17:23:51.479Z,30.75
2023-04-25T17:26:20.230Z,29.58
2023-04-25T17:28:50.540Z,31.30
2023-04-25T17:31:19.598Z,30.45
2023-04-25T17:33:48.924Z,29.52
2023-04-25T17:36:18.120Z,30.67
2023-04-25T17:38:47.985Z,28.05
2023-04-25T17:41:16.811Z,29.65
2023-04-25T17:43:45.505Z,27.25
2023-04-25T17:46:14.163Z,28.88
2023-04-25T17:48:42.878Z,27.52
2023-04-25T17:51:11.877Z,27.80
2023-04-25T17:53:40.601Z,27.67
2023-04-25T17:56:23.367Z,25.98
2023-04-25T17:58:55.423Z,28.52
2023-04-25T18:01:24.537Z,29.05
2023-04-25T18:03:53.636Z,26.77
2023-04-25T18:06:22.410Z,29.60
2023-04-25T18:08:51.439Z,28.77
2023-04-25T18:11:20.401Z,28.85
2023-04-25T18:13:49.092Z,30.58
2023-04-25T18:16:17.872Z,30.05
2023-04-25T18:18:48.107Z,31.13
2023-04-25T18:21:16.761Z,31.52
2023-04-25T18:23:46.023Z,30.75
2023-04-25T18:26:14.988Z,32.25
2023-04-25T18:28:43.759Z,32.67
2023-04-25T18:31:12.740Z,31.83
2023-04-25T18:33:42.602Z,31.75
2023-04-25T18:36:11.277Z,31.92
2023-04-25T18:38:40.006Z,32.22
2023-04-25T18:41:27.536Z,30.02
2023-04-25T18:43:59.810Z,29.48
2023-04-25T18:46:28.709Z,28.20
2023-04-25T18:48:57.526Z,27.13
2023-04-25T18:51:30.455Z,25.73
2023-04-25T18:53:59.958Z,22.77
2023-04-25T18:56:29.539Z,23.10
2023-04-25T18:58:58.613Z,20.95
2023-04-25T19:01:27.997Z,21.90
2023-04-25T19:03:57.567Z,19.88
2023-04-25T19:06:30.544Z,19.90
2023-04-25T19:08:59.888Z,20.42
2023-04-25T19:11:28.546Z,21.33
2023-04-25T19:13:57.815Z,20.25
2023-04-25T19:16:27.148Z,19.80
2023-04-25T19:18:57.908Z,19.50
2023-04-25T19:21:26.543Z,19.08
2023-04-25T19:23:55.549Z,19.65
2023-04-25T19:26:25.728Z,19.17
2023-04-25T19:29:15.355Z,20.35
2023-04-25T19:31:45.669Z,19.90
2023-04-25T19:34:14.915Z,20.85
2023-04-25T19:36:44.992Z,20.73
2023-04-25T19:39:13.997Z,23.42
2023-04-25T19:41:42.723Z,21.50
2023-04-25T19:44:11.573Z,21.63
2023-04-25T19:46:40.631Z,22.90
2023-04-25T19:49:09.265Z,26.63
2023-04-25T19:51:38.085Z,25.83
2023-04-25T19:54:07.093Z,27.48
2023-04-25T19:56:36.718Z,24.38
2023-04-25T19:59:05.415Z,24.25
2023-04-25T20:01:34.417Z,22.67
2023-04-25T20:04:03.097Z,26.10
2023-04-25T20:06:31.844Z,24.15
2023-04-25T20:09:00.546Z,24.60
2023-04-25T20:11:30.128Z,23.67
2023-04-25T20:13:58.858Z,22.13
2023-04-25T20:16:27.563Z,20.42
2023-04-25T20:18:56.438Z,20.90
2023-04-25T20:21:25.522Z,20.17
2023-04-25T20:23:54.282Z,20.10
2023-04-25T20:26:23.189Z,18.90
2023-04-25T20:28:52.296Z,21.70
2023-04-25T20:31:22.490Z,18.25
2023-04-25T20:33:51.237Z,18.15
2023-04-25T20:36:20.760Z,19.15
2023-04-25T20:38:49.399Z,19.17
2023-04-25T20:41:18.117Z,18.63
2023-04-25T20:43:48.114Z,19.00
2023-04-25T20:46:18.661Z,17.90
2023-04-25T20:48:47.602Z,18.05
2023-04-25T20:51:16.421Z,18.45
2023-04-25T20:53:45.112Z,18.23
2023-04-25T20:56:13.927Z,18.70
2023-04-25T20:58:42.835Z,19.30
2023-04-25T21:01:11.591Z,18.20
2023-04-25T21:03:41.039Z,19.48
2023-04-25T21:06:09.903Z,18.20
2023-04-25T21:08:38.539Z,19.55
2023-04-25T21:11:07.327Z,18.42
2023-04-25T21:13:36.037Z,18.13
2023-04-25T21:16:04.986Z,17.67
2023-04-25T21:18:35.645Z,17.00
2023-04-25T21:21:05.361Z,17.75
2023-04-25T21:23:34.405Z,17.67
2023-04-25T21:26:03.061Z,17.90
2023-04-25T21:28:31.756Z,17.30
2023-04-25T21:31:00.460Z,16.90
2023-04-25T21:33:29.253Z,16.85
2023-04-25T21:35:57.879Z,16.60
2023-04-25T21:38:26.653Z,16.42
2023-04-25T21:40:55.376Z,16.25
2023-04-25T21:43:24.006Z,16.50
2023-04-25T21:48:25.953Z,16.23
2023-04-25T21:50:55.035Z,17.13
2023-04-25T21:53:23.699Z,17.08
2023-04-25T21:55:52.328Z,16.38
2023-04-25T21:58:20.990Z,16.15
2023-04-25T22:00:52.433Z,16.10
2023-04-25T22:03:21.245Z,16.88
2023-04-25T22:05:50.133Z,16.50
2023-04-25T22:08:18.745Z,16.58
2023-04-25T22:10:47.697Z,16.05
2023-04-25T22:13:16.320Z,16.02
2023-04-25T22:15:44.961Z,17.08
2023-04-25T22:18:14.246Z,16.92
2023-04-25T22:20:43.193Z,16.17
2023-04-25T22:23:12.849Z,16.17
2023-04-25T22:25:41.635Z,14.93
2023-04-25T22:28:10.309Z,16.70
2023-04-25T22:30:38.910Z,16.17
2023-04-25T22:33:07.877Z,16.67
2023-04-25T22:35:36.551Z,15.13
2023-04-25T22:38:05.209Z,15.43
2023-04-25T22:40:33.936Z,24.60
2023-04-25T22:43:03.084Z,23.08
2023-04-25T22:45:32.236Z,20.23
2023-04-25T22:48:01.297Z,14.95
2023-04-25T22:50:29.930Z,18.23
2023-04-25T22:52:59.143Z,15.82
2023-04-25T22:55:28.180Z,16.35
2023-04-25T22:57:57.166Z,17.17
2023-04-25T23:00:27.200Z,15.65
2023-04-25T23:02:56.104Z,15.00
2023-04-25T23:05:26.380Z,18.60
2023-04-25T23:07:55.586Z,16.55
2023-04-25T23:10:25.468Z,15.82
2023-04-25T23:12:55.714Z,13.55
2023-04-25T23:15:26.743Z,13.70
2023-04-25T23:17:55.757Z,12.95
2023-04-25T23:20:25.374Z,13.13
2023-04-25T23:22:54.031Z,14.07
2023-04-25T23:25:22.965Z,15.73
2023-04-25T23:27:51.667Z,13.65
2023-04-25T23:30:20.733Z,13.70
2023-04-25T23:32:49.408Z,12.73
2023-04-25T23:35:18.545Z,12.65
2023-04-25T23:37:49.950Z,12.15
2023-04-25T23:40:18.566Z,17.08
2023-04-25T23:42:47.429Z,11.85
2023-04-25T23:45:17.465Z,12.40
2023-04-25T23:47:46.102Z,12.82
2023-04-25T23:50:14.800Z,12.43
2023-04-25T23:52:43.848Z,13.98
2023-04-25T23:55:12.507Z,14.32
2023-04-25T23:57:41.175Z,30.73
